To NAV CANADA Home Page Login to a new session Search on AWWS site Feedback and Comments Disclaimer Vers la page française équivalente Tips FAQ What's new on the site To the Forecasts and Observations / NOTAM section To "File a Flight Plan" website Publications and other links Update of the User's profile FIC Telephone Numbers My Weather Data Folder Route Weather Data Regional Weather Data Local Weather Data To the Forecasts and Observations / NOTAM section
Request Generated 06/26/2017 at 22:34:11 UTC . Weather information available at that time is displayed.

METAR/TAF

GOOSE BAY/NL    

METAR CYYR 262200Z 27016G21KT 15SM FEW089 20/00 A2957 RMK CU2 SLP016=
METAR CYYR 262100Z 27019KT 15SM FEW090 20/M00 A2956 RMK AC2 SLP011=
METAR CYYR 262000Z 28018G27KT 15SM FEW087 21/01 A2956 RMK AC2 SLP011=

TAF CYYR 261730Z 2618/2718 25015G25KT P6SM FEW070
BECMG 2700/2702 26010KT
FM270800 25012KT P6SM SCT060 BKN240
FM271300 26018G28KT P6SM OVC050
RMK NXT FCST BY 270000Z=
Your time UTC time
Weather data provided by Environment Canada and NAV CANADA